Tropical Cyclones
[Index]
Main Index Home Page Stock Weather Photos Extreme Storms Discussion Storm News and Storm Chasing Reports Tropical Cyclones / Hurricanes / Typhoons Weather Data and Links Wild Fires / Bushfires Weather Observation Techniques Weather Picture Catalogue Tornado Pictures and Reports Stock Video Footage and DVDs for sale
Season 1996-1997 Tropical Cyclone 199702 Track Map
Season 1996-1997 Summaries: [BoM-AU] [JTWC-AU] [JTWC-SIO] [JTWC-SPAC] [JTWC-SH]
<<- Previous TC | JTWC 1996-1997 Season | Next TC ->>

click for intensity scale information  Lat/long Grid: Show Hide

 Date Labels: Show Hide

Joint Typhoon Warning Centre Cyclone Data

Name: 199702

14 Aug 1996 18:00 UTC to 21 Aug 1996 06:00 UTC

    date/time    lat    long     hPa   cat  kts
1996-08-14 18    4.8    84.3                  20          
1996-08-15 00    5.2    85.2                  25          
1996-08-15 06    5.5    85.9                  25          
1996-08-15 12    6.0    86.7                  25          
1996-08-15 18    6.6    87.4                  25          
1996-08-16 00    7.1    87.9                  25          
1996-08-16 06    7.6    87.9                  25          
1996-08-16 12    8.3    87.6                  30          
1996-08-16 18    9.1    87.2                  30          
1996-08-17 00    9.8    86.9                  35          
1996-08-17 06   10.3    86.6                  35          
1996-08-17 12   10.8    86.3                  35          
1996-08-17 18   11.3    86.1                  35          
1996-08-18 00   11.6    86.0            1     45          
1996-08-18 06   11.9    86.1            1     45          
1996-08-18 12   12.2    86.4            1     45          
1996-08-18 18   12.4    86.9            1     40          
1996-08-19 00   12.4    87.3            1     40          
1996-08-19 06   12.3    87.8            1     40          
1996-08-19 12   12.1    88.3            1     40          
1996-08-19 18   11.9    88.9            1     40          
1996-08-20 00   11.7    89.3            1     40          
1996-08-20 06   11.5    89.7                  35          
1996-08-20 12   11.3    90.0                  30          
1996-08-20 18   11.1    90.1                  30          
1996-08-21 00   11.0    89.7                  30          
1996-08-21 06   11.1    89.3                  25          
Winds are 1-min average.

Tropical cyclone tracks developed by Michael Bath using data from the Joint Typhoon Warning Centre Best Tracks and Google Maps.


[Australian Severe Weather index] [Copyright Notice] [Email Contacts] [Search This Site] [Privacy Policy]
Document: tropical_cyclone_199702.htm Updated: 18 September 2016